CA-0126 weather

CLOSED Namao Airport
Edmonton, Alberta, Canada

Public forecast

Using degrees Celsius for public forecast. Weather courtesy of forecast.io.

METAR (pilot weather report)

Closest report is Edmonton (CFB Namao) Heliport, 0.9 nm (1.7 km) SSW. Retrieved 2019/07/23 06:00 UTC (38 minutes ago):

CYED 230600Z 10002KT 15SM SKC 16/15 A3004 RMK DA3001FT SLP174

TAF (pilot weather forecast)

Closest forecast is Edmonton (CFB Namao) Heliport, 0.9 nm (1.7 km) SSW. Retrieved 2019/07/23 06:33 UTC (5 minutes ago):

TAF TAF CYED 230530Z 2306/2318 VRB03KT P6SM FEW220 BECMG 2312/2314 FEW100 FEW220 RMK FCST BASED ON AUTO OBS 230700-231800Z. NXT FCST BY 231200Z